DLH23P EDDS-EDDN
Flight info
| Callsign | DLH23P |
|---|---|
| Flight time | 0h 26m |
| Altitude | 19000 |
| Route | DKB9B/25 DKB N869 LETKU LETKU1V |
| Aircraft | A320/M-SDE3FGHIRWY/LB1 |
Departure
| Time | 2026-05-07 18:19 |
|---|---|
| Airport | Stuttgart Airport (EDDS) |
Arrival
| Time | 2026-05-07 18:46 |
|---|---|
| Airport | Nuremberg Airport (EDDN) |
| Time | Latitude | Longitude | Altitude | Speed | Heading |
|---|---|---|---|---|---|
| 2026-05-07 18:02 | 48.68885 | 9.19435 | 1290 ft | 0 kts | 343° |
| 2026-05-07 18:11 | 48.68883 | 9.19436 | 1285 ft | 2 kts | 342° |
| 2026-05-07 18:11 | 48.68858 | 9.19449 | 1288 ft | 4 kts | 340° |
| 2026-05-07 18:11 | 48.68833 | 9.19460 | 1291 ft | 4 kts | 2° |
| 2026-05-07 18:11 | 48.68819 | 9.19454 | 1291 ft | 1 kts | 73° |
| 2026-05-07 18:14 | 48.68840 | 9.19569 | 1287 ft | 16 kts | 75° |
| 2026-05-07 18:14 | 48.68870 | 9.19741 | 1286 ft | 18 kts | 73° |
| 2026-05-07 18:14 | 48.68842 | 9.19888 | 1288 ft | 16 kts | 143° |
| 2026-05-07 18:14 | 48.68836 | 9.20029 | 1288 ft | 14 kts | 74° |
| 2026-05-07 18:15 | 48.68869 | 9.20207 | 1287 ft | 20 kts | 73° |
| 2026-05-07 18:15 | 48.68910 | 9.20417 | 1284 ft | 23 kts | 73° |
| 2026-05-07 18:15 | 48.68956 | 9.20665 | 1277 ft | 26 kts | 74° |
| 2026-05-07 18:15 | 48.69009 | 9.20939 | 1270 ft | 28 kts | 74° |
| 2026-05-07 18:16 | 48.69065 | 9.21235 | 1266 ft | 28 kts | 73° |
| 2026-05-07 18:16 | 48.69117 | 9.21501 | 1257 ft | 27 kts | 75° |
| 2026-05-07 18:16 | 48.69170 | 9.21788 | 1257 ft | 29 kts | 74° |
| 2026-05-07 18:16 | 48.69224 | 9.22066 | 1249 ft | 23 kts | 73° |
| 2026-05-07 18:17 | 48.69267 | 9.22297 | 1242 ft | 25 kts | 76° |
| 2026-05-07 18:17 | 48.69317 | 9.22560 | 1231 ft | 28 kts | 74° |
| 2026-05-07 18:17 | 48.69373 | 9.22854 | 1224 ft | 27 kts | 73° |
| 2026-05-07 18:17 | 48.69405 | 9.23054 | 1219 ft | 18 kts | 91° |
| 2026-05-07 18:18 | 48.69319 | 9.23172 | 1218 ft | 17 kts | 161° |
| 2026-05-07 18:18 | 48.69223 | 9.23216 | 1218 ft | 13 kts | 163° |
| 2026-05-07 18:18 | 48.69173 | 9.23169 | 1219 ft | 0 kts | 255° |
| 2026-05-07 18:19 | 48.69150 | 9.23031 | 1222 ft | 49 kts | 255° |
| 2026-05-07 18:19 | 48.68985 | 9.22173 | 1252 ft | 117 kts | 253° |
| 2026-05-07 18:19 | 48.68723 | 9.20762 | 1499 ft | 149 kts | 257° |
| 2026-05-07 18:19 | 48.68468 | 9.19242 | 2265 ft | 149 kts | 256° |
| 2026-05-07 18:20 | 48.68174 | 9.17718 | 2865 ft | 155 kts | 255° |
| 2026-05-07 18:20 | 48.67839 | 9.16040 | 3171 ft | 177 kts | 255° |
| 2026-05-07 18:20 | 48.67459 | 9.14142 | 3417 ft | 200 kts | 255° |
| 2026-05-07 18:20 | 48.67049 | 9.12008 | 3666 ft | 221 kts | 261° |
| 2026-05-07 18:21 | 48.67230 | 9.09655 | 4042 ft | 237 kts | 299° |
| 2026-05-07 18:21 | 48.68174 | 9.07594 | 4876 ft | 240 kts | 312° |
| 2026-05-07 18:21 | 48.69572 | 9.06183 | 5650 ft | 250 kts | 339° |
| 2026-05-07 18:21 | 48.71306 | 9.05426 | 6215 ft | 266 kts | 344° |
| 2026-05-07 18:22 | 48.73171 | 9.05137 | 6983 ft | 276 kts | 6° |
| 2026-05-07 18:22 | 48.74406 | 9.05639 | 7507 ft | 281 kts | 24° |
| 2026-05-07 18:22 | 48.76351 | 9.08302 | 8598 ft | 291 kts | 60° |
| 2026-05-07 18:22 | 48.77288 | 9.11040 | 9436 ft | 294 kts | 63° |
| 2026-05-07 18:23 | 48.78215 | 9.13836 | 10238 ft | 300 kts | 63° |
| 2026-05-07 18:23 | 48.79185 | 9.16765 | 10570 ft | 322 kts | 63° |
| 2026-05-07 18:23 | 48.80225 | 9.19904 | 10792 ft | 345 kts | 63° |
| 2026-05-07 18:23 | 48.81341 | 9.23264 | 10971 ft | 368 kts | 63° |
| 2026-05-07 18:24 | 48.82515 | 9.26792 | 11447 ft | 378 kts | 63° |
| 2026-05-07 18:24 | 48.83707 | 9.30372 | 12139 ft | 382 kts | 63° |
| 2026-05-07 18:24 | 48.84913 | 9.34000 | 12858 ft | 386 kts | 63° |
| 2026-05-07 18:24 | 48.86128 | 9.37654 | 13568 ft | 389 kts | 63° |
| 2026-05-07 18:25 | 48.87355 | 9.41340 | 14214 ft | 393 kts | 63° |
| 2026-05-07 18:25 | 48.88592 | 9.45064 | 14786 ft | 397 kts | 63° |
| 2026-05-07 18:25 | 48.89842 | 9.48835 | 15340 ft | 402 kts | 63° |
| 2026-05-07 18:25 | 48.91106 | 9.52653 | 15901 ft | 406 kts | 63° |
| 2026-05-07 18:26 | 48.92377 | 9.56502 | 16471 ft | 410 kts | 62° |
| 2026-05-07 18:26 | 48.93660 | 9.60399 | 17012 ft | 414 kts | 62° |
| 2026-05-07 18:26 | 48.94954 | 9.64331 | 17504 ft | 418 kts | 62° |
| 2026-05-07 18:26 | 48.96261 | 9.68311 | 18017 ft | 423 kts | 62° |
| 2026-05-07 18:27 | 48.97585 | 9.72349 | 18483 ft | 428 kts | 62° |
| 2026-05-07 18:27 | 48.98920 | 9.76420 | 18888 ft | 431 kts | 62° |
| 2026-05-07 18:27 | 49.00257 | 9.80509 | 19019 ft | 432 kts | 62° |
| 2026-05-07 18:27 | 49.01151 | 9.83245 | 19060 ft | 440 kts | 62° |
| 2026-05-07 18:28 | 49.03013 | 9.88951 | 19057 ft | 458 kts | 62° |
| 2026-05-07 18:28 | 49.04422 | 9.93277 | 19057 ft | 462 kts | 62° |
| 2026-05-07 18:28 | 49.05850 | 9.97677 | 19058 ft | 463 kts | 62° |
| 2026-05-07 18:28 | 49.07279 | 10.02089 | 19058 ft | 463 kts | 62° |
| 2026-05-07 18:29 | 49.08702 | 10.06497 | 19073 ft | 463 kts | 63° |
| 2026-05-07 18:29 | 49.10121 | 10.10906 | 19059 ft | 461 kts | 63° |
| 2026-05-07 18:29 | 49.11533 | 10.15298 | 19072 ft | 461 kts | 63° |
| 2026-05-07 18:29 | 49.12950 | 10.19683 | 19059 ft | 460 kts | 61° |
| 2026-05-07 18:30 | 49.14590 | 10.23819 | 18562 ft | 452 kts | 52° |
| 2026-05-07 18:30 | 49.16607 | 10.27463 | 17814 ft | 446 kts | 43° |
| 2026-05-07 18:30 | 49.18783 | 10.30806 | 17092 ft | 441 kts | 43° |
| 2026-05-07 18:30 | 49.20934 | 10.34129 | 16431 ft | 436 kts | 44° |
| 2026-05-07 18:31 | 49.23050 | 10.37414 | 15760 ft | 430 kts | 44° |
| 2026-05-07 18:31 | 49.25150 | 10.40670 | 15113 ft | 425 kts | 44° |
| 2026-05-07 18:31 | 49.27227 | 10.43853 | 14488 ft | 420 kts | 43° |
| 2026-05-07 18:31 | 49.29203 | 10.47111 | 13841 ft | 417 kts | 52° |
| 2026-05-07 18:32 | 49.30596 | 10.50972 | 13131 ft | 414 kts | 69° |
| 2026-05-07 18:32 | 49.31227 | 10.55194 | 12444 ft | 411 kts | 83° |
| 2026-05-07 18:32 | 49.31515 | 10.59561 | 12088 ft | 413 kts | 84° |
| 2026-05-07 18:32 | 49.31796 | 10.63932 | 11705 ft | 410 kts | 84° |
| 2026-05-07 18:33 | 49.32067 | 10.68207 | 11316 ft | 395 kts | 84° |
| 2026-05-07 18:33 | 49.32322 | 10.72259 | 10942 ft | 368 kts | 84° |
| 2026-05-07 18:33 | 49.32560 | 10.76046 | 10578 ft | 347 kts | 84° |
| 2026-05-07 18:33 | 49.32788 | 10.79630 | 10260 ft | 328 kts | 84° |
| 2026-05-07 18:34 | 49.33004 | 10.83012 | 9972 ft | 311 kts | 84° |
| 2026-05-07 18:34 | 49.33213 | 10.86278 | 9656 ft | 305 kts | 84° |
| 2026-05-07 18:34 | 49.33420 | 10.89504 | 9342 ft | 303 kts | 84° |
| 2026-05-07 18:34 | 49.33624 | 10.92703 | 9056 ft | 299 kts | 84° |
| 2026-05-07 18:35 | 49.33823 | 10.95880 | 8931 ft | 299 kts | 84° |
| 2026-05-07 18:35 | 49.34019 | 10.99049 | 8700 ft | 298 kts | 84° |
| 2026-05-07 18:35 | 49.34215 | 11.02213 | 8439 ft | 297 kts | 84° |
| 2026-05-07 18:35 | 49.34410 | 11.05358 | 8181 ft | 295 kts | 84° |
| 2026-05-07 18:36 | 49.34604 | 11.08486 | 7923 ft | 294 kts | 84° |
| 2026-05-07 18:36 | 49.34797 | 11.11599 | 7651 ft | 293 kts | 84° |
| 2026-05-07 18:36 | 49.34990 | 11.14707 | 7417 ft | 292 kts | 83° |
| 2026-05-07 18:36 | 49.35179 | 11.17800 | 7164 ft | 290 kts | 84° |
| 2026-05-07 18:37 | 49.35366 | 11.20882 | 6911 ft | 290 kts | 84° |
| 2026-05-07 18:37 | 49.35549 | 11.23969 | 6670 ft | 290 kts | 84° |
| 2026-05-07 18:37 | 49.35728 | 11.27043 | 6433 ft | 289 kts | 84° |
| 2026-05-07 18:37 | 49.35909 | 11.30110 | 6173 ft | 288 kts | 83° |
| 2026-05-07 18:38 | 49.36093 | 11.33159 | 5916 ft | 287 kts | 83° |
| 2026-05-07 18:38 | 49.36280 | 11.36202 | 5656 ft | 285 kts | 81° |
| 2026-05-07 18:38 | 49.36870 | 11.39024 | 5402 ft | 274 kts | 55° |
| 2026-05-07 18:38 | 49.38018 | 11.41274 | 5194 ft | 262 kts | 45° |
| 2026-05-07 18:39 | 49.39203 | 11.43325 | 5037 ft | 251 kts | 44° |
| 2026-05-07 18:39 | 49.40485 | 11.45012 | 4897 ft | 236 kts | 21° |
| 2026-05-07 18:39 | 49.42002 | 11.45652 | 4836 ft | 222 kts | 0° |
| 2026-05-07 18:39 | 49.43521 | 11.45438 | 4782 ft | 218 kts | 340° |
| 2026-05-07 18:40 | 49.44876 | 11.44453 | 4726 ft | 215 kts | 321° |
| 2026-05-07 18:40 | 49.45914 | 11.42849 | 4680 ft | 208 kts | 303° |
| 2026-05-07 18:40 | 49.46517 | 11.40910 | 4625 ft | 197 kts | 285° |
| 2026-05-07 18:40 | 49.46688 | 11.39555 | 4585 ft | 193 kts | 279° |
| 2026-05-07 18:41 | 49.46893 | 11.37537 | 4530 ft | 190 kts | 280° |
| 2026-05-07 18:41 | 49.47098 | 11.35529 | 4411 ft | 189 kts | 280° |
| 2026-05-07 18:41 | 49.47296 | 11.33571 | 4208 ft | 182 kts | 280° |
| 2026-05-07 18:41 | 49.47488 | 11.31671 | 3963 ft | 178 kts | 280° |
| 2026-05-07 18:42 | 49.47676 | 11.29808 | 3723 ft | 175 kts | 280° |
| 2026-05-07 18:42 | 49.47858 | 11.27995 | 3500 ft | 167 kts | 280° |
| 2026-05-07 18:42 | 49.48028 | 11.26301 | 3293 ft | 152 kts | 280° |
| 2026-05-07 18:42 | 49.48182 | 11.24762 | 3069 ft | 141 kts | 280° |
| 2026-05-07 18:43 | 49.48330 | 11.23285 | 2875 ft | 139 kts | 281° |
| 2026-05-07 18:43 | 49.48477 | 11.21825 | 2687 ft | 138 kts | 282° |
| 2026-05-07 18:43 | 49.48622 | 11.20376 | 2501 ft | 137 kts | 282° |
| 2026-05-07 18:43 | 49.48766 | 11.18931 | 2314 ft | 136 kts | 281° |
| 2026-05-07 18:44 | 49.48910 | 11.17488 | 2127 ft | 137 kts | 281° |
| 2026-05-07 18:44 | 49.49054 | 11.16042 | 1926 ft | 136 kts | 281° |
| 2026-05-07 18:44 | 49.49199 | 11.14600 | 1738 ft | 137 kts | 281° |
| 2026-05-07 18:44 | 49.49342 | 11.13154 | 1546 ft | 136 kts | 281° |
| 2026-05-07 18:45 | 49.49484 | 11.11718 | 1373 ft | 137 kts | 281° |
| 2026-05-07 18:45 | 49.49627 | 11.10276 | 1188 ft | 137 kts | 281° |
| 2026-05-07 18:45 | 49.49766 | 11.08849 | 1040 ft | 128 kts | 281° |
| 2026-05-07 18:45 | 49.49882 | 11.07691 | 1032 ft | 86 kts | 278° |
| 2026-05-07 18:46 | 49.49936 | 11.07132 | 1021 ft | 26 kts | 278° |
| 2026-05-07 18:46 | 49.49880 | 11.07017 | 1021 ft | 14 kts | 174° |
| 2026-05-07 18:46 | 49.49804 | 11.07059 | 1021 ft | 8 kts | 159° |
| 2026-05-07 18:46 | 49.49762 | 11.07091 | 1023 ft | 5 kts | 145° |
| 2026-05-07 18:47 | 49.49741 | 11.07179 | 1024 ft | 14 kts | 99° |
| 2026-05-07 18:47 | 49.49725 | 11.07338 | 1027 ft | 14 kts | 99° |
| 2026-05-07 18:47 | 49.49712 | 11.07466 | 1029 ft | 10 kts | 98° |
| 2026-05-07 18:47 | 49.49701 | 11.07571 | 1031 ft | 11 kts | 98° |
| 2026-05-07 18:48 | 49.49691 | 11.07677 | 1032 ft | 10 kts | 98° |
| 2026-05-07 18:48 | 49.49637 | 11.07767 | 1031 ft | 12 kts | 180° |
| 2026-05-07 18:48 | 49.49585 | 11.07690 | 1027 ft | 8 kts | 226° |
| 2026-05-07 18:48 | 49.49536 | 11.07662 | 1027 ft | 4 kts | 188° |
| 2026-05-07 18:49 | 49.49527 | 11.07660 | 1024 ft | 0 kts | 189° |